sensor_id;sensor_type;location;lat;lon;timestamp;pressure;altitude;pressure_sealevel;temperature;humidity
52291;BME280;39663;45.432;28.050;2023-05-11T00:00:11;102019.00;;;10.68;50.62
52291;BME280;39663;45.432;28.050;2023-05-11T00:00:43;102017.40;;;10.51;50.15
52291;BME280;39663;45.432;28.050;2023-05-11T00:01:14;102018.14;;;10.27;51.28
52291;BME280;39663;45.432;28.050;2023-05-11T00:01:46;102017.91;;;10.37;51.58
52291;BME280;39663;45.432;28.050;2023-05-11T00:02:17;102016.32;;;10.28;51.50
52291;BME280;39663;45.432;28.050;2023-05-11T00:02:49;102015.84;;;10.12;51.78
52291;BME280;39663;45.432;28.050;2023-05-11T00:03:20;102017.14;;;10.40;51.62
52291;BME280;39663;45.432;28.050;2023-05-11T00:03:52;102017.32;;;10.27;51.25
52291;BME280;39663;45.432;28.050;2023-05-11T00:04:23;102016.66;;;10.63;50.97
52291;BME280;39663;45.432;28.050;2023-05-11T00:04:55;102014.77;;;10.53;50.79
52291;BME280;39663;45.432;28.050;2023-05-11T00:05:26;102015.94;;;10.76;50.41
52291;BME280;39663;45.432;28.050;2023-05-11T00:05:58;102015.69;;;10.94;50.22
52291;BME280;39663;45.432;28.050;2023-05-11T00:06:30;102015.26;;;10.78;50.12
52291;BME280;39663;45.432;28.050;2023-05-11T00:07:01;102015.14;;;10.88;50.21
52291;BME280;39663;45.432;28.050;2023-05-11T00:07:33;102015.96;;;10.67;50.41
52291;BME280;39663;45.432;28.050;2023-05-11T00:08:04;102016.62;;;10.48;50.68
52291;BME280;39663;45.432;28.050;2023-05-11T00:08:36;102017.81;;;10.53;50.87
52291;BME280;39663;45.432;28.050;2023-05-11T00:09:08;102018.21;;;10.62;50.73
52291;BME280;39663;45.432;28.050;2023-05-11T00:09:39;102017.04;;;10.78;50.72
52291;BME280;39663;45.432;28.050;2023-05-11T00:10:11;102018.47;;;10.94;50.34
52291;BME280;39663;45.432;28.050;2023-05-11T00:10:46;102017.69;;;11.00;50.23
52291;BME280;39663;45.432;28.050;2023-05-11T00:11:31;102016.87;;;10.56;50.71
52291;BME280;39663;45.432;28.050;2023-05-11T00:12:04;102018.25;;;10.47;51.35
52291;BME280;39663;45.432;28.050;2023-05-11T00:12:36;102020.76;;;10.33;51.27
52291;BME280;39663;45.432;28.050;2023-05-11T00:13:07;102020.50;;;10.25;51.52
52291;BME280;39663;45.432;28.050;2023-05-11T00:13:38;102018.40;;;10.01;51.82
52291;BME280;39663;45.432;28.050;2023-05-11T00:14:10;102019.24;;;10.26;51.00
52291;BME280;39663;45.432;28.050;2023-05-11T00:14:41;102020.75;;;10.28;50.99
52291;BME280;39663;45.432;28.050;2023-05-11T00:15:13;102021.66;;;10.41;51.25
52291;BME280;39663;45.432;28.050;2023-05-11T00:15:45;102023.30;;;9.74;52.24
52291;BME280;39663;45.432;28.050;2023-05-11T00:16:16;102020.60;;;10.42;51.48
52291;BME280;39663;45.432;28.050;2023-05-11T00:16:48;102020.69;;;10.48;50.80
52291;BME280;39663;45.432;28.050;2023-05-11T00:17:19;102020.96;;;10.35;50.99
52291;BME280;39663;45.432;28.050;2023-05-11T00:17:51;102019.41;;;10.45;50.53
52291;BME280;39663;45.432;28.050;2023-05-11T00:18:22;102020.93;;;10.56;50.34
52291;BME280;39663;45.432;28.050;2023-05-11T00:18:54;102019.89;;;10.61;50.30
52291;BME280;39663;45.432;28.050;2023-05-11T00:19:25;102017.83;;;10.85;50.42
52291;BME280;39663;45.432;28.050;2023-05-11T00:19:57;102020.68;;;9.66;50.80
52291;BME280;39663;45.432;28.050;2023-05-11T00:20:29;102022.79;;;9.68;51.84
52291;BME280;39663;45.432;28.050;2023-05-11T00:21:00;102023.02;;;9.75;52.19
52291;BME280;39663;45.432;28.050;2023-05-11T00:21:32;102020.99;;;9.74;52.41
52291;BME280;39663;45.432;28.050;2023-05-11T00:22:04;102022.26;;;9.69;52.48
52291;BME280;39663;45.432;28.050;2023-05-11T00:22:36;102022.11;;;9.57;52.29
52291;BME280;39663;45.432;28.050;2023-05-11T00:23:07;102019.69;;;9.28;52.38
52291;BME280;39663;45.432;28.050;2023-05-11T00:23:40;102019.61;;;9.01;52.35
52291;BME280;39663;45.432;28.050;2023-05-11T00:24:12;102018.92;;;8.45;52.61
52291;BME280;39663;45.432;28.050;2023-05-11T00:24:43;102015.18;;;9.58;51.76
52291;BME280;39663;45.432;28.050;2023-05-11T00:25:15;102016.85;;;9.75;51.91
52291;BME280;39663;45.432;28.050;2023-05-11T00:25:47;102017.64;;;10.12;52.62
52291;BME280;39663;45.432;28.050;2023-05-11T00:26:18;102017.84;;;10.08;51.32
52291;BME280;39663;45.432;28.050;2023-05-11T00:26:50;102017.46;;;10.27;51.24
52291;BME280;39663;45.432;28.050;2023-05-11T00:27:22;102017.71;;;10.39;51.46
52291;BME280;39663;45.432;28.050;2023-05-11T00:27:53;102015.96;;;10.43;50.78
52291;BME280;39663;45.432;28.050;2023-05-11T00:28:25;102016.00;;;10.08;51.10
52291;BME280;39663;45.432;28.050;2023-05-11T00:28:56;102020.45;;;9.81;52.85
52291;BME280;39663;45.432;28.050;2023-05-11T00:29:28;102018.90;;;10.14;51.72
52291;BME280;39663;45.432;28.050;2023-05-11T00:29:59;102019.44;;;10.36;51.15
52291;BME280;39663;45.432;28.050;2023-05-11T00:30:31;102020.73;;;10.37;50.46
52291;BME280;39663;45.432;28.050;2023-05-11T00:31:02;102022.15;;;9.80;50.86
52291;BME280;39663;45.432;28.050;2023-05-11T00:31:34;102022.26;;;9.65;51.39
52291;BME280;39663;45.432;28.050;2023-05-11T00:32:06;102021.32;;;9.99;52.62
52291;BME280;39663;45.432;28.050;2023-05-11T00:32:37;102019.80;;;10.22;51.06
52291;BME280;39663;45.432;28.050;2023-05-11T00:33:09;102018.86;;;10.48;50.50
52291;BME280;39663;45.432;28.050;2023-05-11T00:33:40;102018.52;;;10.09;51.26
52291;BME280;39663;45.432;28.050;2023-05-11T00:34:12;102016.89;;;10.48;51.31
52291;BME280;39663;45.432;28.050;2023-05-11T00:34:43;102017.90;;;10.18;50.31
52291;BME280;39663;45.432;28.050;2023-05-11T00:35:15;102017.40;;;10.29;50.50
52291;BME280;39663;45.432;28.050;2023-05-11T00:35:46;102015.88;;;10.22;50.72
52291;BME280;39663;45.432;28.050;2023-05-11T00:36:18;102015.63;;;10.62;49.83
52291;BME280;39663;45.432;28.050;2023-05-11T00:36:49;102015.06;;;10.65;49.39
52291;BME280;39663;45.432;28.050;2023-05-11T00:37:21;102014.89;;;10.53;49.69
52291;BME280;39663;45.432;28.050;2023-05-11T00:37:52;102014.04;;;10.60;49.54
52291;BME280;39663;45.432;28.050;2023-05-11T00:38:24;102015.66;;;10.42;48.91
52291;BME280;39663;45.432;28.050;2023-05-11T00:38:55;102016.87;;;10.14;49.25
52291;BME280;39663;45.432;28.050;2023-05-11T00:39:27;102015.95;;;10.45;49.05
52291;BME280;39663;45.432;28.050;2023-05-11T00:39:58;102016.03;;;10.52;49.72
52291;BME280;39663;45.432;28.050;2023-05-11T00:40:30;102016.77;;;10.53;48.96
52291;BME280;39663;45.432;28.050;2023-05-11T00:41:02;102017.85;;;10.74;48.98
52291;BME280;39663;45.432;28.050;2023-05-11T00:41:33;102016.80;;;10.64;50.77
52291;BME280;39663;45.432;28.050;2023-05-11T00:42:05;102017.30;;;10.54;50.24
52291;BME280;39663;45.432;28.050;2023-05-11T00:42:37;102016.82;;;10.89;50.62
52291;BME280;39663;45.432;28.050;2023-05-11T00:43:08;102018.55;;;10.71;49.87
52291;BME280;39663;45.432;28.050;2023-05-11T00:43:40;102017.83;;;10.79;48.61
52291;BME280;39663;45.432;28.050;2023-05-11T00:44:12;102017.57;;;10.62;49.31
52291;BME280;39663;45.432;28.050;2023-05-11T00:44:43;102019.38;;;10.76;49.10
52291;BME280;39663;45.432;28.050;2023-05-11T00:45:15;102021.10;;;10.75;49.63
52291;BME280;39663;45.432;28.050;2023-05-11T00:45:47;102020.43;;;10.82;49.27
52291;BME280;39663;45.432;28.050;2023-05-11T00:46:19;102020.53;;;10.76;49.06
52291;BME280;39663;45.432;28.050;2023-05-11T00:46:51;102021.44;;;11.24;48.42
52291;BME280;39663;45.432;28.050;2023-05-11T00:47:22;102021.87;;;10.58;48.80
52291;BME280;39663;45.432;28.050;2023-05-11T00:47:54;102023.01;;;10.79;48.30
52291;BME280;39663;45.432;28.050;2023-05-11T00:48:26;102022.75;;;10.94;48.22
52291;BME280;39663;45.432;28.050;2023-05-11T00:48:57;102021.47;;;11.03;48.05
52291;BME280;39663;45.432;28.050;2023-05-11T00:49:29;102024.49;;;10.38;48.95
52291;BME280;39663;45.432;28.050;2023-05-11T00:50:02;102024.78;;;10.38;48.92
52291;BME280;39663;45.432;28.050;2023-05-11T00:50:34;102023.94;;;9.91;49.84
52291;BME280;39663;45.432;28.050;2023-05-11T00:51:05;102022.60;;;10.38;49.05
52291;BME280;39663;45.432;28.050;2023-05-11T00:51:37;102019.68;;;10.57;48.69
52291;BME280;39663;45.432;28.050;2023-05-11T00:52:09;102021.22;;;10.28;49.49
52291;BME280;39663;45.432;28.050;2023-05-11T00:52:41;102023.21;;;9.51;50.65
52291;BME280;39663;45.432;28.050;2023-05-11T00:53:13;102022.64;;;9.34;51.28
52291;BME280;39663;45.432;28.050;2023-05-11T00:53:45;102020.96;;;9.72;50.84
52291;BME280;39663;45.432;28.050;2023-05-11T00:54:17;102023.54;;;10.17;51.26
52291;BME280;39663;45.432;28.050;2023-05-11T00:54:49;102023.18;;;9.84;50.52
52291;BME280;39663;45.432;28.050;2023-05-11T00:55:20;102020.62;;;9.93;50.30
52291;BME280;39663;45.432;28.050;2023-05-11T00:55:52;102021.89;;;9.55;50.69
52291;BME280;39663;45.432;28.050;2023-05-11T00:56:24;102021.91;;;9.49;51.50
52291;BME280;39663;45.432;28.050;2023-05-11T00:56:56;102019.61;;;9.61;50.68
52291;BME280;39663;45.432;28.050;2023-05-11T00:57:27;102020.35;;;9.62;50.52
52291;BME280;39663;45.432;28.050;2023-05-11T00:57:59;102020.69;;;9.83;50.39
52291;BME280;39663;45.432;28.050;2023-05-11T00:58:30;102020.78;;;10.01;49.62
52291;BME280;39663;45.432;28.050;2023-05-11T00:59:02;102016.51;;;10.07;49.41
52291;BME280;39663;45.432;28.050;2023-05-11T00:59:34;102020.92;;;9.86;49.92
52291;BME280;39663;45.432;28.050;2023-05-11T01:00:07;102019.41;;;10.18;49.74
52291;BME280;39663;45.432;28.050;2023-05-11T01:00:39;102020.81;;;9.90;49.63
52291;BME280;39663;45.432;28.050;2023-05-11T01:01:24;102020.50;;;9.75;50.16
52291;BME280;39663;45.432;28.050;2023-05-11T01:01:56;102018.19;;;9.55;50.77
52291;BME280;39663;45.432;28.050;2023-05-11T01:02:28;102019.09;;;9.48;50.88
52291;BME280;39663;45.432;28.050;2023-05-11T01:03:00;102021.84;;;9.41;51.05
52291;BME280;39663;45.432;28.050;2023-05-11T01:03:32;102023.94;;;9.24;51.68
52291;BME280;39663;45.432;28.050;2023-05-11T01:04:04;102020.96;;;9.77;50.70
52291;BME280;39663;45.432;28.050;2023-05-11T01:04:37;102022.75;;;9.21;51.55
52291;BME280;39663;45.432;28.050;2023-05-11T01:05:08;102022.63;;;9.55;51.05
52291;BME280;39663;45.432;28.050;2023-05-11T01:05:44;102023.25;;;9.74;50.24
52291;BME280;39663;45.432;28.050;2023-05-11T01:06:24;102022.66;;;10.01;49.91
52291;BME280;39663;45.432;28.050;2023-05-11T01:07:05;102021.66;;;9.73;50.63
52291;BME280;39663;45.432;28.050;2023-05-11T01:07:48;102023.17;;;9.75;50.23
52291;BME280;39663;45.432;28.050;2023-05-11T01:08:36;102022.37;;;9.83;50.73
52291;BME280;39663;45.432;28.050;2023-05-11T01:09:21;102025.18;;;9.94;51.48
52291;BME280;39663;45.432;28.050;2023-05-11T01:10:01;102023.96;;;9.80;51.59
52291;BME280;39663;45.432;28.050;2023-05-11T01:10:40;102024.23;;;10.13;51.20
52291;BME280;39663;45.432;28.050;2023-05-11T01:11:16;102024.24;;;10.04;50.86
52291;BME280;39663;45.432;28.050;2023-05-11T01:11:56;102025.34;;;10.26;50.35
52291;BME280;39663;45.432;28.050;2023-05-11T01:12:38;102026.32;;;10.11;50.34
52291;BME280;39663;45.432;28.050;2023-05-11T01:13:18;102025.05;;;10.40;50.59
52291;BME280;39663;45.432;28.050;2023-05-11T01:13:58;102025.96;;;9.95;50.02
52291;BME280;39663;45.432;28.050;2023-05-11T01:14:40;102026.26;;;9.86;50.14
52291;BME280;39663;45.432;28.050;2023-05-11T01:15:16;102025.85;;;9.92;50.51
52291;BME280;39663;45.432;28.050;2023-05-11T01:15:53;102025.43;;;10.18;49.55
52291;BME280;39663;45.432;28.050;2023-05-11T01:16:26;102021.43;;;10.32;49.41
52291;BME280;39663;45.432;28.050;2023-05-11T01:17:05;102021.09;;;10.21;49.42
52291;BME280;39663;45.432;28.050;2023-05-11T01:17:45;102022.26;;;10.25;49.13
52291;BME280;39663;45.432;28.050;2023-05-11T01:18:24;102023.53;;;10.23;49.31
52291;BME280;39663;45.432;28.050;2023-05-11T01:19:01;102024.08;;;10.23;49.76
52291;BME280;39663;45.432;28.050;2023-05-11T01:19:40;102020.37;;;10.27;49.43
52291;BME280;39663;45.432;28.050;2023-05-11T01:20:17;102022.75;;;10.45;49.19
52291;BME280;39663;45.432;28.050;2023-05-11T01:21:03;102020.93;;;10.59;49.26
52291;BME280;39663;45.432;28.050;2023-05-11T01:21:36;102019.07;;;10.29;49.46
52291;BME280;39663;45.432;28.050;2023-05-11T01:22:20;102017.66;;;10.45;49.30
52291;BME280;39663;45.432;28.050;2023-05-11T01:23:11;102018.22;;;10.79;48.82
52291;BME280;39663;45.432;28.050;2023-05-11T01:24:21;102018.63;;;10.88;48.37
52291;BME280;39663;45.432;28.050;2023-05-11T01:25:05;102018.23;;;10.73;48.50
52291;BME280;39663;45.432;28.050;2023-05-11T01:25:52;102018.91;;;10.09;49.67
52291;BME280;39663;45.432;28.050;2023-05-11T01:26:37;102018.13;;;10.24;49.92
52291;BME280;39663;45.432;28.050;2023-05-11T01:27:39;102019.10;;;10.27;51.35
52291;BME280;39663;45.432;28.050;2023-05-11T01:28:32;102024.74;;;10.20;49.54
52291;BME280;39663;45.432;28.050;2023-05-11T01:29:40;102024.23;;;9.54;51.42
52291;BME280;39663;45.432;28.050;2023-05-11T01:30:22;102024.39;;;9.10;52.15
52291;BME280;39663;45.432;28.050;2023-05-11T01:30:58;102024.52;;;9.12;52.02
52291;BME280;39663;45.432;28.050;2023-05-11T01:31:33;102024.82;;;8.74;52.39
52291;BME280;39663;45.432;28.050;2023-05-11T01:32:13;102024.26;;;8.43;53.58
52291;BME280;39663;45.432;28.050;2023-05-11T01:32:46;102022.93;;;8.47;54.34
52291;BME280;39663;45.432;28.050;2023-05-11T01:33:23;102023.32;;;9.14;53.13
52291;BME280;39663;45.432;28.050;2023-05-11T01:33:58;102022.05;;;9.35;52.46
52291;BME280;39663;45.432;28.050;2023-05-11T01:34:34;102017.51;;;9.59;52.13
52291;BME280;39663;45.432;28.050;2023-05-11T01:35:09;102019.25;;;9.67;51.17
52291;BME280;39663;45.432;28.050;2023-05-11T01:35:47;102018.23;;;9.58;52.14
52291;BME280;39663;45.432;28.050;2023-05-11T01:36:27;102018.57;;;9.71;51.56
52291;BME280;39663;45.432;28.050;2023-05-11T01:37:07;102017.76;;;9.63;51.66
52291;BME280;39663;45.432;28.050;2023-05-11T01:37:42;102020.00;;;9.35;51.81
52291;BME280;39663;45.432;28.050;2023-05-11T01:38:18;102015.61;;;9.59;51.37
52291;BME280;39663;45.432;28.050;2023-05-11T01:38:53;102016.50;;;9.89;51.51
52291;BME280;39663;45.432;28.050;2023-05-11T01:39:31;102015.56;;;10.08;50.42
52291;BME280;39663;45.432;28.050;2023-05-11T01:40:09;102014.87;;;9.13;51.36
52291;BME280;39663;45.432;28.050;2023-05-11T01:40:42;102016.05;;;9.06;51.99
52291;BME280;39663;45.432;28.050;2023-05-11T01:41:17;102015.08;;;9.67;51.01
52291;BME280;39663;45.432;28.050;2023-05-11T01:41:52;102013.60;;;10.05;50.63
52291;BME280;39663;45.432;28.050;2023-05-11T01:42:43;102013.59;;;10.04;50.56
52291;BME280;39663;45.432;28.050;2023-05-11T01:43:21;102013.09;;;9.99;50.80
52291;BME280;39663;45.432;28.050;2023-05-11T01:43:57;102012.63;;;9.77;51.29
52291;BME280;39663;45.432;28.050;2023-05-11T01:44:31;102008.94;;;10.07;51.05
52291;BME280;39663;45.432;28.050;2023-05-11T01:45:06;102009.55;;;9.62;51.10
52291;BME280;39663;45.432;28.050;2023-05-11T01:45:42;102009.26;;;9.57;51.35
52291;BME280;39663;45.432;28.050;2023-05-11T01:46:16;102009.89;;;9.83;51.49
52291;BME280;39663;45.432;28.050;2023-05-11T01:46:49;102010.27;;;9.85;52.01
52291;BME280;39663;45.432;28.050;2023-05-11T01:47:22;102009.17;;;9.92;51.86
52291;BME280;39663;45.432;28.050;2023-05-11T01:47:55;102008.50;;;9.78;51.98
52291;BME280;39663;45.432;28.050;2023-05-11T01:48:33;102010.98;;;9.47;52.19
52291;BME280;39663;45.432;28.050;2023-05-11T01:49:06;102012.48;;;9.20;52.61
52291;BME280;39663;45.432;28.050;2023-05-11T01:49:40;102014.99;;;9.39;52.90
52291;BME280;39663;45.432;28.050;2023-05-11T01:50:16;102014.33;;;9.29;53.31
52291;BME280;39663;45.432;28.050;2023-05-11T01:50:49;102015.04;;;8.90;53.94
52291;BME280;39663;45.432;28.050;2023-05-11T01:51:23;102014.75;;;8.69;54.50
52291;BME280;39663;45.432;28.050;2023-05-11T01:51:56;102013.88;;;8.46;54.94
52291;BME280;39663;45.432;28.050;2023-05-11T01:52:30;102015.06;;;8.60;54.81
52291;BME280;39663;45.432;28.050;2023-05-11T01:53:02;102017.57;;;8.28;55.63
52291;BME280;39663;45.432;28.050;2023-05-11T01:53:36;102015.66;;;8.84;54.40
52291;BME280;39663;45.432;28.050;2023-05-11T01:54:08;102012.20;;;9.16;53.73
52291;BME280;39663;45.432;28.050;2023-05-11T01:54:43;102012.34;;;9.23;53.43
52291;BME280;39663;45.432;28.050;2023-05-11T01:55:18;102012.96;;;9.09;53.68
52291;BME280;39663;45.432;28.050;2023-05-11T01:55:52;102011.98;;;9.29;53.01
52291;BME280;39663;45.432;28.050;2023-05-11T01:56:24;102011.94;;;9.47;52.75
52291;BME280;39663;45.432;28.050;2023-05-11T01:56:57;102010.28;;;9.54;52.60
52291;BME280;39663;45.432;28.050;2023-05-11T01:57:30;102009.69;;;9.68;52.22
52291;BME280;39663;45.432;28.050;2023-05-11T01:58:03;102010.69;;;9.86;51.85
52291;BME280;39663;45.432;28.050;2023-05-11T01:58:38;102012.83;;;9.96;51.62
52291;BME280;39663;45.432;28.050;2023-05-11T01:59:11;102012.93;;;9.92;51.76
52291;BME280;39663;45.432;28.050;2023-05-11T01:59:43;102012.85;;;9.73;52.14
52291;BME280;39663;45.432;28.050;2023-05-11T02:00:16;102011.06;;;9.89;51.80
52291;BME280;39663;45.432;28.050;2023-05-11T02:00:48;102012.87;;;10.01;51.36
52291;BME280;39663;45.432;28.050;2023-05-11T02:01:21;102012.23;;;9.86;51.27
52291;BME280;39663;45.432;28.050;2023-05-11T02:01:55;102009.70;;;9.81;51.73
52291;BME280;39663;45.432;28.050;2023-05-11T02:02:28;102008.79;;;9.65;51.88
52291;BME280;39663;45.432;28.050;2023-05-11T02:03:01;102008.78;;;9.58;52.02
52291;BME280;39663;45.432;28.050;2023-05-11T02:03:36;102008.30;;;9.63;52.19
52291;BME280;39663;45.432;28.050;2023-05-11T02:04:08;102009.02;;;9.87;51.90
52291;BME280;39663;45.432;28.050;2023-05-11T02:04:41;102007.70;;;9.59;52.22
52291;BME280;39663;45.432;28.050;2023-05-11T02:05:17;102009.59;;;9.18;53.27
52291;BME280;39663;45.432;28.050;2023-05-11T02:05:50;102009.93;;;9.22;53.32
52291;BME280;39663;45.432;28.050;2023-05-11T02:06:24;102005.88;;;9.54;52.59
52291;BME280;39663;45.432;28.050;2023-05-11T02:06:58;102005.86;;;9.34;52.67
52291;BME280;39663;45.432;28.050;2023-05-11T02:07:31;102005.86;;;9.63;52.20
52291;BME280;39663;45.432;28.050;2023-05-11T02:08:05;102009.40;;;9.47;52.73
52291;BME280;39663;45.432;28.050;2023-05-11T02:08:40;102006.73;;;9.59;52.82
52291;BME280;39663;45.432;28.050;2023-05-11T02:09:13;102009.11;;;9.45;52.50
52291;BME280;39663;45.432;28.050;2023-05-11T02:09:47;102008.67;;;9.57;52.71
52291;BME280;39663;45.432;28.050;2023-05-11T02:10:21;102011.24;;;9.14;52.80
52291;BME280;39663;45.432;28.050;2023-05-11T02:10:55;102012.75;;;9.37;53.35
52291;BME280;39663;45.432;28.050;2023-05-11T02:11:28;102008.38;;;9.42;52.41
52291;BME280;39663;45.432;28.050;2023-05-11T02:12:02;102011.67;;;9.44;52.66
52291;BME280;39663;45.432;28.050;2023-05-11T02:12:34;102008.74;;;9.54;52.43
52291;BME280;39663;45.432;28.050;2023-05-11T02:13:07;102008.61;;;9.48;52.20
52291;BME280;39663;45.432;28.050;2023-05-11T02:13:43;102010.36;;;9.53;52.43
52291;BME280;39663;45.432;28.050;2023-05-11T02:14:16;102009.57;;;9.48;52.00
52291;BME280;39663;45.432;28.050;2023-05-11T02:14:50;102010.59;;;9.48;52.15
52291;BME280;39663;45.432;28.050;2023-05-11T02:15:24;102008.18;;;9.57;52.33
52291;BME280;39663;45.432;28.050;2023-05-11T02:15:57;102009.15;;;9.27;52.82
52291;BME280;39663;45.432;28.050;2023-05-11T02:16:30;102009.33;;;9.22;53.14
52291;BME280;39663;45.432;28.050;2023-05-11T02:17:03;102008.27;;;9.40;52.24
52291;BME280;39663;45.432;28.050;2023-05-11T02:17:38;102005.18;;;9.29;52.35
52291;BME280;39663;45.432;28.050;2023-05-11T02:18:13;102009.67;;;9.36;53.06
52291;BME280;39663;45.432;28.050;2023-05-11T02:18:45;102006.81;;;9.19;52.79
52291;BME280;39663;45.432;28.050;2023-05-11T02:19:18;102007.72;;;8.85;52.71
52291;BME280;39663;45.432;28.050;2023-05-11T02:19:51;102006.32;;;8.80;53.29
52291;BME280;39663;45.432;28.050;2023-05-11T02:20:24;102008.70;;;8.96;52.47
52291;BME280;39663;45.432;28.050;2023-05-11T02:20:57;102004.84;;;8.81;53.38
52291;BME280;39663;45.432;28.050;2023-05-11T02:21:32;102006.76;;;8.55;53.56
52291;BME280;39663;45.432;28.050;2023-05-11T02:22:04;102004.42;;;8.60;53.27
52291;BME280;39663;45.432;28.050;2023-05-11T02:22:37;102004.45;;;9.02;52.92
52291;BME280;39663;45.432;28.050;2023-05-11T02:23:10;102005.55;;;9.06;53.23
52291;BME280;39663;45.432;28.050;2023-05-11T02:23:42;102002.06;;;9.32;52.42
52291;BME280;39663;45.432;28.050;2023-05-11T02:24:16;102004.32;;;8.83;52.89
52291;BME280;39663;45.432;28.050;2023-05-11T02:24:49;102004.33;;;8.73;53.68
52291;BME280;39663;45.432;28.050;2023-05-11T02:25:21;102005.13;;;8.54;54.04
52291;BME280;39663;45.432;28.050;2023-05-11T02:25:54;102007.63;;;8.68;53.94
52291;BME280;39663;45.432;28.050;2023-05-11T02:26:26;102008.41;;;9.04;53.43
52291;BME280;39663;45.432;28.050;2023-05-11T02:26:58;102005.39;;;9.30;53.61
52291;BME280;39663;45.432;28.050;2023-05-11T02:27:29;102004.27;;;9.50;51.27
52291;BME280;39663;45.432;28.050;2023-05-11T02:28:01;102005.10;;;9.03;51.90
52291;BME280;39663;45.432;28.050;2023-05-11T02:28:33;102007.19;;;9.03;52.30
52291;BME280;39663;45.432;28.050;2023-05-11T02:29:04;102009.04;;;9.30;51.68
52291;BME280;39663;45.432;28.050;2023-05-11T02:29:36;102009.76;;;9.22;52.36
52291;BME280;39663;45.432;28.050;2023-05-11T02:30:09;102010.05;;;9.45;52.15
52291;BME280;39663;45.432;28.050;2023-05-11T02:30:43;102008.39;;;9.64;51.06
52291;BME280;39663;45.432;28.050;2023-05-11T02:31:19;102007.63;;;9.86;50.01
52291;BME280;39663;45.432;28.050;2023-05-11T02:32:08;102009.50;;;9.12;51.57
52291;BME280;39663;45.432;28.050;2023-05-11T02:32:55;102010.25;;;9.34;52.07
52291;BME280;39663;45.432;28.050;2023-05-11T02:33:31;102009.80;;;9.44;51.69
52291;BME280;39663;45.432;28.050;2023-05-11T02:34:12;102008.46;;;9.22;52.94
52291;BME280;39663;45.432;28.050;2023-05-11T02:34:53;102009.89;;;9.30;52.50
52291;BME280;39663;45.432;28.050;2023-05-11T02:35:29;102010.12;;;9.25;53.23
52291;BME280;39663;45.432;28.050;2023-05-11T02:36:02;102011.79;;;9.25;53.55
52291;BME280;39663;45.432;28.050;2023-05-11T02:36:37;102011.28;;;9.23;52.51
52291;BME280;39663;45.432;28.050;2023-05-11T02:37:17;102007.59;;;9.56;51.67
52291;BME280;39663;45.432;28.050;2023-05-11T02:37:54;102008.76;;;9.66;50.87
52291;BME280;39663;45.432;28.050;2023-05-11T02:38:30;102006.41;;;9.52;51.22
52291;BME280;39663;45.432;28.050;2023-05-11T02:39:06;102009.48;;;9.57;51.31
52291;BME280;39663;45.432;28.050;2023-05-11T02:39:40;102007.07;;;9.64;51.06
52291;BME280;39663;45.432;28.050;2023-05-11T02:40:17;102009.20;;;9.71;51.44
52291;BME280;39663;45.432;28.050;2023-05-11T02:40:52;102006.48;;;9.67;51.16
52291;BME280;39663;45.432;28.050;2023-05-11T02:41:27;102007.21;;;9.74;50.81
52291;BME280;39663;45.432;28.050;2023-05-11T02:42:05;102008.49;;;9.83;50.86
52291;BME280;39663;45.432;28.050;2023-05-11T02:42:42;102007.91;;;9.72;51.11
52291;BME280;39663;45.432;28.050;2023-05-11T02:43:20;102008.35;;;9.88;50.73
52291;BME280;39663;45.432;28.050;2023-05-11T02:43:57;102005.96;;;9.97;50.56
52291;BME280;39663;45.432;28.050;2023-05-11T02:44:34;102006.92;;;9.74;50.85
52291;BME280;39663;45.432;28.050;2023-05-11T02:45:08;102009.86;;;9.61;51.27
52291;BME280;39663;45.432;28.050;2023-05-11T02:45:43;102012.69;;;9.54;51.24
52291;BME280;39663;45.432;28.050;2023-05-11T02:46:19;102014.98;;;9.44;52.63
52291;BME280;39663;45.432;28.050;2023-05-11T02:46:53;102013.69;;;9.76;50.60
52291;BME280;39663;45.432;28.050;2023-05-11T02:47:27;102014.63;;;9.68;50.79
52291;BME280;39663;45.432;28.050;2023-05-11T02:48:04;102017.13;;;9.69;50.63
52291;BME280;39663;45.432;28.050;2023-05-11T02:48:40;102019.40;;;9.69;51.03
52291;BME280;39663;45.432;28.050;2023-05-11T02:49:14;102017.26;;;9.92;50.11
52291;BME280;39663;45.432;28.050;2023-05-11T02:49:48;102017.86;;;9.79;50.64
52291;BME280;39663;45.432;28.050;2023-05-11T02:50:22;102019.64;;;9.74;50.80
52291;BME280;39663;45.432;28.050;2023-05-11T02:50:56;102019.52;;;9.58;50.37
52291;BME280;39663;45.432;28.050;2023-05-11T02:51:31;102019.51;;;9.63;50.35
52291;BME280;39663;45.432;28.050;2023-05-11T02:52:04;102020.83;;;9.69;50.16
52291;BME280;39663;45.432;28.050;2023-05-11T02:52:40;102018.62;;;9.83;50.02
52291;BME280;39663;45.432;28.050;2023-05-11T02:53:15;102021.55;;;9.96;49.66
52291;BME280;39663;45.432;28.050;2023-05-11T02:53:48;102020.91;;;9.89;50.05
52291;BME280;39663;45.432;28.050;2023-05-11T02:54:22;102020.70;;;9.76;50.34
52291;BME280;39663;45.432;28.050;2023-05-11T02:54:56;102022.89;;;9.37;50.88
52291;BME280;39663;45.432;28.050;2023-05-11T02:55:30;102022.31;;;9.57;51.22
52291;BME280;39663;45.432;28.050;2023-05-11T02:56:02;102025.09;;;9.62;51.14
52291;BME280;39663;45.432;28.050;2023-05-11T02:56:35;102022.10;;;9.56;50.29
52291;BME280;39663;45.432;28.050;2023-05-11T02:57:07;102024.97;;;9.59;50.42
52291;BME280;39663;45.432;28.050;2023-05-11T02:57:38;102028.12;;;9.47;51.30
52291;BME280;39663;45.432;28.050;2023-05-11T02:58:10;102026.19;;;9.44;50.80
52291;BME280;39663;45.432;28.050;2023-05-11T02:58:42;102027.36;;;9.61;50.64
52291;BME280;39663;45.432;28.050;2023-05-11T02:59:15;102026.24;;;9.74;50.37